createdAt,value
2023-04-28T00:00:32.608Z,7.30
2023-04-28T00:02:59.482Z,7.40
2023-04-28T00:05:26.765Z,7.50
2023-04-28T00:07:53.783Z,7.60
2023-04-28T00:10:20.601Z,7.50
2023-04-28T00:12:47.331Z,7.60
2023-04-28T00:15:14.170Z,7.70
2023-04-28T00:17:40.885Z,7.70
2023-04-28T00:20:08.289Z,7.80
2023-04-28T00:22:35.004Z,7.80
2023-04-28T00:25:02.000Z,7.80
2023-04-28T00:27:28.700Z,7.90
2023-04-28T00:29:55.731Z,7.90
2023-04-28T00:32:22.574Z,7.90
2023-04-28T00:34:49.347Z,8.00
2023-04-28T00:37:16.053Z,8.00
2023-04-28T00:39:46.939Z,8.00
2023-04-28T00:42:17.283Z,8.00
2023-04-28T00:44:43.992Z,7.90
2023-04-28T00:47:11.721Z,7.80
2023-04-28T00:49:38.580Z,7.70
2023-04-28T00:52:06.991Z,7.60
2023-04-28T00:54:37.513Z,7.50
2023-04-28T00:57:04.826Z,7.60
2023-04-28T00:59:31.785Z,7.60
2023-04-28T01:02:00.783Z,7.60
2023-04-28T01:04:29.707Z,7.70
2023-04-28T01:06:56.939Z,7.80
2023-04-28T01:09:23.638Z,7.80
2023-04-28T01:11:51.878Z,7.80
2023-04-28T01:14:40.580Z,7.70
2023-04-28T01:17:08.497Z,7.50
2023-04-28T01:19:35.968Z,7.60
2023-04-28T01:22:02.699Z,7.70
2023-04-28T01:24:29.533Z,7.80
2023-04-28T01:26:59.464Z,7.90
2023-04-28T01:29:27.772Z,8.00
2023-04-28T01:31:54.591Z,8.00
2023-04-28T01:34:21.381Z,8.00
2023-04-28T01:36:48.062Z,7.60
2023-04-28T01:39:15.066Z,7.20
2023-04-28T01:41:42.242Z,7.10
2023-04-28T01:44:09.256Z,7.20
2023-04-28T01:46:36.581Z,7.30
2023-04-28T01:49:03.382Z,7.40
2023-04-28T01:51:30.072Z,7.50
2023-04-28T01:53:57.121Z,7.60
2023-04-28T01:56:24.314Z,7.70
2023-04-28T01:58:52.999Z,7.70
2023-04-28T02:01:20.020Z,7.70
2023-04-28T02:03:47.143Z,7.80
2023-04-28T02:06:13.962Z,7.90
2023-04-28T02:08:40.996Z,7.90
2023-04-28T02:11:07.736Z,8.00
2023-04-28T02:13:34.420Z,8.00
2023-04-28T02:16:02.272Z,8.00
2023-04-28T02:18:29.100Z,8.10
2023-04-28T02:21:11.920Z,8.10
2023-04-28T02:23:39.399Z,8.20
2023-04-28T02:26:06.558Z,8.30
2023-04-28T02:28:33.294Z,8.20
2023-04-28T02:31:11.448Z,8.10
2023-04-28T02:33:38.820Z,7.90
2023-04-28T02:36:06.697Z,7.80
2023-04-28T02:38:33.462Z,7.60
2023-04-28T02:41:09.270Z,7.70
2023-04-28T02:43:37.253Z,7.80
2023-04-28T02:46:04.974Z,7.90
2023-04-28T02:48:33.120Z,7.80
2023-04-28T02:50:59.771Z,7.80
2023-04-28T02:53:26.615Z,7.90
2023-04-28T02:55:53.937Z,8.00
2023-04-28T02:58:20.856Z,8.00
2023-04-28T03:00:49.031Z,8.00
2023-04-28T03:03:17.020Z,8.10
2023-04-28T03:05:43.856Z,8.00
2023-04-28T03:08:10.806Z,7.90
2023-04-28T03:10:37.533Z,7.90
2023-04-28T03:13:04.772Z,8.00
2023-04-28T03:15:31.478Z,8.10
2023-04-28T03:17:58.231Z,8.20
2023-04-28T03:20:25.092Z,8.20
2023-04-28T03:22:51.805Z,8.30
2023-04-28T03:25:18.715Z,8.40
2023-04-28T03:27:51.100Z,8.40
2023-04-28T03:30:17.899Z,8.50
2023-04-28T03:32:44.646Z,8.40
2023-04-28T03:35:11.447Z,8.40
2023-04-28T03:37:39.662Z,8.30
2023-04-28T03:40:07.351Z,8.20
2023-04-28T03:42:52.773Z,8.10
2023-04-28T03:45:27.229Z,7.90
2023-04-28T03:47:54.041Z,8.00
2023-04-28T03:50:21.024Z,8.10
2023-04-28T03:52:47.870Z,8.20
2023-04-28T03:55:14.872Z,8.30
2023-04-28T03:57:41.686Z,8.30
2023-04-28T04:00:08.971Z,8.30
2023-04-28T04:02:42.540Z,8.50
2023-04-28T04:05:09.822Z,8.50
2023-04-28T04:07:36.757Z,8.50
2023-04-28T04:10:04.799Z,8.50
2023-04-28T04:12:34.032Z,8.50
2023-04-28T04:15:00.804Z,8.60
2023-04-28T04:17:27.837Z,8.50
2023-04-28T04:19:54.592Z,8.40
2023-04-28T04:22:21.368Z,8.30
2023-04-28T04:24:48.106Z,8.20
2023-04-28T04:27:14.960Z,8.10
2023-04-28T04:29:42.432Z,8.00
2023-04-28T04:32:13.125Z,8.30
2023-04-28T04:34:41.329Z,8.80
2023-04-28T04:37:09.517Z,9.10
2023-04-28T04:39:41.806Z,9.30
2023-04-28T04:42:23.311Z,9.30
2023-04-28T04:45:08.974Z,9.30
2023-04-28T04:47:36.849Z,9.30
2023-04-28T04:50:03.873Z,9.20
2023-04-28T04:52:30.676Z,9.10
2023-04-28T04:54:57.433Z,9.00
2023-04-28T04:57:24.901Z,9.00
2023-04-28T05:00:30.179Z,8.90
2023-04-28T05:02:57.004Z,8.80
2023-04-28T05:05:24.024Z,8.80
2023-04-28T05:08:03.697Z,8.80
2023-04-28T05:10:30.442Z,8.80
2023-04-28T05:12:57.278Z,8.80
2023-04-28T05:15:24.027Z,8.80
2023-04-28T05:18:14.235Z,8.80
2023-04-28T05:20:41.061Z,8.80
2023-04-28T05:23:08.089Z,8.80
2023-04-28T05:25:34.986Z,8.70
2023-04-28T05:28:07.504Z,8.70
2023-04-28T05:30:34.492Z,8.70
2023-04-28T05:33:01.527Z,8.80
2023-04-28T05:35:29.047Z,8.80
2023-04-28T05:37:55.886Z,8.90
2023-04-28T05:40:23.058Z,8.90
2023-04-28T05:42:49.768Z,8.90
2023-04-28T05:45:16.467Z,8.90
2023-04-28T05:47:43.353Z,9.00
2023-04-28T05:50:11.053Z,9.00
2023-04-28T05:52:38.364Z,9.00
2023-04-28T05:55:05.443Z,9.00
2023-04-28T05:57:41.769Z,9.00
2023-04-28T06:00:17.222Z,9.00
2023-04-28T06:02:44.162Z,9.00
2023-04-28T06:05:11.715Z,9.00
2023-04-28T06:07:38.980Z,8.90
2023-04-28T06:10:06.475Z,9.00
2023-04-28T06:12:33.262Z,8.90
2023-04-28T06:15:01.087Z,8.90
2023-04-28T06:17:28.095Z,8.90
2023-04-28T06:19:55.760Z,8.90
2023-04-28T06:22:22.463Z,9.00
2023-04-28T06:24:49.161Z,9.00
2023-04-28T06:27:19.627Z,9.00
2023-04-28T06:29:46.618Z,9.10
2023-04-28T06:32:13.300Z,9.20
2023-04-28T06:34:40.122Z,9.20
2023-04-28T06:37:06.896Z,9.30
2023-04-28T06:39:33.657Z,9.30
2023-04-28T06:42:02.283Z,9.30
2023-04-28T06:44:29.544Z,9.40
2023-04-28T06:46:56.494Z,9.30
2023-04-28T06:49:23.224Z,9.30
2023-04-28T06:51:50.034Z,9.20
2023-04-28T06:54:17.000Z,9.30
2023-04-28T06:56:44.322Z,9.30
2023-04-28T06:59:11.030Z,9.30
2023-04-28T07:01:37.780Z,9.30
2023-04-28T07:04:04.845Z,9.30
2023-04-28T07:06:32.425Z,9.20
2023-04-28T07:08:59.323Z,9.20
2023-04-28T07:11:26.135Z,9.30
2023-04-28T07:13:52.800Z,9.20
2023-04-28T07:16:19.566Z,9.30
2023-04-28T07:18:46.437Z,9.30
2023-04-28T07:21:13.418Z,9.30
2023-04-28T07:23:40.915Z,9.40
2023-04-28T07:26:08.179Z,9.50
2023-04-28T07:28:35.457Z,9.50
2023-04-28T07:31:02.153Z,9.50
2023-04-28T07:33:28.838Z,9.50
2023-04-28T07:35:55.912Z,9.50
2023-04-28T07:38:22.766Z,9.30
2023-04-28T07:40:49.681Z,9.40
2023-04-28T07:43:16.770Z,9.40
2023-04-28T07:45:45.833Z,9.50
2023-04-28T07:48:12.782Z,9.50
2023-04-28T07:50:39.534Z,9.60
2023-04-28T07:53:06.272Z,9.50
2023-04-28T07:55:33.003Z,9.50
2023-04-28T07:57:59.846Z,9.50
2023-04-28T08:00:26.781Z,9.50
2023-04-28T08:02:53.703Z,9.50
2023-04-28T08:05:20.948Z,9.50
2023-04-28T08:07:47.830Z,9.50
2023-04-28T08:10:14.522Z,9.50
2023-04-28T08:12:41.312Z,9.50
2023-04-28T08:15:10.038Z,9.50
2023-04-28T08:17:36.947Z,9.50
2023-04-28T08:20:05.757Z,9.60
2023-04-28T08:22:32.690Z,9.60
2023-04-28T08:24:59.371Z,9.70
2023-04-28T08:27:26.242Z,9.70
2023-04-28T08:29:53.765Z,9.70
2023-04-28T08:32:20.484Z,9.80
2023-04-28T08:34:47.180Z,9.70
2023-04-28T08:37:14.044Z,9.70
2023-04-28T08:39:40.716Z,9.70
2023-04-28T08:42:08.199Z,9.60
2023-04-28T08:44:39.715Z,9.70
2023-04-28T08:47:14.210Z,9.60
2023-04-28T08:49:41.431Z,9.60
2023-04-28T08:52:13.337Z,9.70
2023-04-28T08:54:41.503Z,9.70
2023-04-28T08:57:11.544Z,9.80
2023-04-28T08:59:41.680Z,9.90
2023-04-28T09:02:09.448Z,10.00
2023-04-28T09:04:37.220Z,10.10
2023-04-28T09:07:04.227Z,10.10
2023-04-28T09:09:34.163Z,10.10
2023-04-28T09:12:04.086Z,10.10
2023-04-28T09:14:35.973Z,10.10
2023-04-28T09:17:09.160Z,10.10
2023-04-28T09:19:37.615Z,10.10
2023-04-28T09:22:17.658Z,10.10
2023-04-28T09:24:52.991Z,10.10
2023-04-28T09:27:29.574Z,10.10
2023-04-28T09:29:56.694Z,10.10
2023-04-28T09:32:24.501Z,10.20
2023-04-28T09:34:54.241Z,10.20
2023-04-28T09:37:23.250Z,10.20
2023-04-28T09:39:51.670Z,10.30
2023-04-28T09:42:48.612Z,10.30
2023-04-28T09:45:16.220Z,10.40
2023-04-28T09:50:15.211Z,10.80
2023-04-28T09:52:44.917Z,10.40
2023-04-28T09:55:12.896Z,10.40
2023-04-28T09:57:40.193Z,10.50
2023-04-28T10:00:09.220Z,10.40
2023-04-28T10:05:09.696Z,10.40
2023-04-28T10:07:37.466Z,10.50
2023-04-28T10:10:06.845Z,10.50
2023-04-28T10:12:33.753Z,10.60
2023-04-28T10:15:01.236Z,10.60
2023-04-28T10:17:29.502Z,10.60
2023-04-28T10:19:57.153Z,10.60
2023-04-28T10:22:54.915Z,10.60
2023-04-28T10:25:31.047Z,10.60
2023-04-28T10:27:59.403Z,10.60
2023-04-28T10:30:29.486Z,10.80
2023-04-28T10:33:14.825Z,10.90
2023-04-28T10:35:48.414Z,10.90
2023-04-28T10:38:20.672Z,10.90
2023-04-28T10:40:51.659Z,10.80
2023-04-28T10:43:33.377Z,10.70
2023-04-28T10:46:02.121Z,10.70
2023-04-28T10:48:35.135Z,10.70
2023-04-28T10:51:07.913Z,10.70
2023-04-28T10:53:47.397Z,10.70
2023-04-28T10:56:27.477Z,10.70
2023-04-28T10:58:56.160Z,10.70
2023-04-28T11:01:24.862Z,10.70
2023-04-28T11:04:13.544Z,10.70
2023-04-28T11:06:42.876Z,10.70
2023-04-28T11:09:12.585Z,10.60
2023-04-28T11:11:58.441Z,10.40
2023-04-28T11:14:25.069Z,10.20
2023-04-28T11:17:03.386Z,10.10
2023-04-28T11:19:38.186Z,10.00
2023-04-28T11:22:15.155Z,10.00
2023-04-28T11:24:42.062Z,9.90
2023-04-28T11:27:08.831Z,9.80
2023-04-28T11:29:36.517Z,9.90
2023-04-28T11:32:04.956Z,9.90
2023-04-28T11:34:32.619Z,10.00
2023-04-28T11:36:59.773Z,10.10
2023-04-28T11:39:31.256Z,10.30
2023-04-28T11:42:02.728Z,10.30
2023-04-28T11:44:31.212Z,10.60
2023-04-28T11:47:01.045Z,10.70
2023-04-28T11:49:30.604Z,10.80
2023-04-28T11:52:00.182Z,11.00
2023-04-28T11:54:28.826Z,11.10
2023-04-28T11:56:57.793Z,11.20
2023-04-28T11:59:29.377Z,11.00
2023-04-28T12:01:59.284Z,11.00
2023-04-28T12:04:38.170Z,11.10
2023-04-28T12:07:10.778Z,11.10
2023-04-28T12:09:38.971Z,11.10
2023-04-28T12:12:07.598Z,11.10
2023-04-28T12:14:55.142Z,11.00
2023-04-28T12:17:33.377Z,11.00
2023-04-28T12:20:02.371Z,11.00
2023-04-28T12:22:30.014Z,11.00
2023-04-28T12:25:17.399Z,11.00
2023-04-28T12:28:02.633Z,11.20
2023-04-28T12:30:31.466Z,11.40
2023-04-28T12:32:58.417Z,11.40
2023-04-28T12:35:26.847Z,11.50
2023-04-28T12:37:56.015Z,11.40
2023-04-28T12:40:24.255Z,11.40
2023-04-28T12:42:51.128Z,11.40
2023-04-28T12:45:17.927Z,11.30
2023-04-28T12:47:44.696Z,11.20
2023-04-28T12:50:12.206Z,11.10
2023-04-28T12:52:38.897Z,11.10
2023-04-28T12:55:06.185Z,11.20
2023-04-28T12:57:32.891Z,11.20
2023-04-28T12:59:59.803Z,11.20
2023-04-28T13:02:26.515Z,11.20
2023-04-28T13:04:53.722Z,11.20
2023-04-28T13:07:20.654Z,11.20
2023-04-28T13:09:47.981Z,11.20
2023-04-28T13:12:15.006Z,11.30
2023-04-28T13:14:42.107Z,11.30
2023-04-28T13:17:10.090Z,11.40
2023-04-28T13:19:37.840Z,11.40
2023-04-28T13:22:05.980Z,11.50
2023-04-28T13:24:36.078Z,11.50
2023-04-28T13:27:04.138Z,11.60
2023-04-28T13:29:30.907Z,11.80
2023-04-28T13:31:57.821Z,11.80
2023-04-28T13:34:24.712Z,11.80
2023-04-28T13:36:54.037Z,11.70
2023-04-28T13:39:22.020Z,11.70
2023-04-28T13:41:49.462Z,11.80
2023-04-28T13:44:16.994Z,11.90
2023-04-28T13:46:43.906Z,11.90
2023-04-28T13:49:10.669Z,11.90
2023-04-28T13:51:37.728Z,11.90
2023-04-28T13:54:05.442Z,11.90
2023-04-28T13:56:32.600Z,12.00
2023-04-28T13:58:59.704Z,12.00
2023-04-28T14:01:27.071Z,11.90
2023-04-28T14:03:54.111Z,12.00
2023-04-28T14:06:21.736Z,11.90
2023-04-28T14:08:48.768Z,11.90
2023-04-28T14:11:15.720Z,11.90
2023-04-28T14:13:42.901Z,11.90
2023-04-28T14:16:09.663Z,11.90
2023-04-28T14:18:37.729Z,11.90
2023-04-28T14:21:07.976Z,11.90
2023-04-28T14:23:35.555Z,12.10
2023-04-28T14:26:02.605Z,12.10
2023-04-28T14:28:29.465Z,12.20
2023-04-28T14:30:56.371Z,12.20
2023-04-28T14:33:23.397Z,12.40
2023-04-28T14:35:50.157Z,12.70
2023-04-28T14:38:17.170Z,12.90
2023-04-28T14:40:44.049Z,12.90
2023-04-28T14:43:10.958Z,13.10
2023-04-28T14:45:40.343Z,13.10
2023-04-28T14:48:07.973Z,12.90
2023-04-28T14:50:35.013Z,12.90
2023-04-28T14:53:06.685Z,12.80
2023-04-28T14:55:33.804Z,12.70
2023-04-28T14:58:00.482Z,12.70
2023-04-28T15:00:27.180Z,12.70
2023-04-28T15:02:54.187Z,12.70
2023-04-28T15:05:21.014Z,12.70
2023-04-28T15:07:47.797Z,12.70
2023-04-28T15:10:14.885Z,12.90
2023-04-28T15:12:42.575Z,12.90
2023-04-28T15:15:10.223Z,12.90
2023-04-28T15:17:37.085Z,12.80
2023-04-28T15:20:05.115Z,12.80
2023-04-28T15:22:31.816Z,12.80
2023-04-28T15:24:58.521Z,12.90
2023-04-28T15:27:25.324Z,12.90
2023-04-28T15:29:52.022Z,12.80
2023-04-28T15:32:19.008Z,12.80
2023-04-28T15:34:45.967Z,12.80
2023-04-28T15:37:41.538Z,12.70
2023-04-28T15:40:10.680Z,12.60
2023-04-28T15:42:38.386Z,12.70
2023-04-28T15:45:05.949Z,12.70
2023-04-28T15:47:32.942Z,12.80
2023-04-28T15:49:59.734Z,12.80
2023-04-28T15:52:27.045Z,13.00
2023-04-28T15:54:55.923Z,13.10
2023-04-28T15:57:22.917Z,13.30
2023-04-28T15:59:51.578Z,13.30
2023-04-28T16:02:18.988Z,13.40
2023-04-28T16:04:46.730Z,13.30
2023-04-28T16:07:13.612Z,13.20
2023-04-28T16:09:40.439Z,13.20
2023-04-28T16:12:07.480Z,13.10
2023-04-28T16:14:34.909Z,13.10
2023-04-28T16:17:01.871Z,13.10
2023-04-28T16:19:29.080Z,13.00
2023-04-28T16:21:55.752Z,13.00
2023-04-28T16:24:22.821Z,13.00
2023-04-28T16:26:51.147Z,13.00
2023-04-28T16:29:17.812Z,13.00
2023-04-28T16:31:45.518Z,12.90
2023-04-28T16:34:12.313Z,13.00
2023-04-28T16:36:40.080Z,13.00
2023-04-28T16:39:06.961Z,13.10
2023-04-28T16:41:33.735Z,13.10
2023-04-28T16:44:00.416Z,13.10
2023-04-28T16:46:27.184Z,13.20
2023-04-28T16:48:53.971Z,13.30
2023-04-28T16:51:20.701Z,13.50
2023-04-28T16:53:47.536Z,13.40
2023-04-28T16:56:14.241Z,13.40
2023-04-28T16:58:40.960Z,13.30
2023-04-28T17:01:07.950Z,13.30
2023-04-28T17:03:40.929Z,13.20
2023-04-28T17:06:08.319Z,13.30
2023-04-28T17:08:35.231Z,13.20
2023-04-28T17:11:04.191Z,13.20
2023-04-28T17:13:34.102Z,13.20
2023-04-28T17:16:01.600Z,13.20
2023-04-28T17:18:28.794Z,13.20
2023-04-28T17:20:56.574Z,13.20
2023-04-28T17:23:23.286Z,13.20
2023-04-28T17:25:49.964Z,13.10
2023-04-28T17:28:16.627Z,13.10
2023-04-28T17:30:47.086Z,13.10
2023-04-28T17:33:15.155Z,13.10
2023-04-28T17:35:41.900Z,13.10
2023-04-28T17:38:08.974Z,13.10
2023-04-28T17:40:36.118Z,13.00
2023-04-28T17:43:03.991Z,13.00
2023-04-28T17:45:30.905Z,12.90
2023-04-28T17:48:00.192Z,12.90
2023-04-28T17:50:27.068Z,12.80
2023-04-28T17:52:54.216Z,12.80
2023-04-28T17:55:21.030Z,12.80
2023-04-28T17:57:47.728Z,12.70
2023-04-28T18:00:14.953Z,12.70
2023-04-28T18:02:42.013Z,12.70
2023-04-28T18:05:09.203Z,12.70
2023-04-28T18:07:36.286Z,12.70
2023-04-28T18:10:03.140Z,12.70
2023-04-28T18:12:30.268Z,12.60
2023-04-28T18:14:57.913Z,12.60
2023-04-28T18:17:26.089Z,12.60
2023-04-28T18:19:56.467Z,12.60
2023-04-28T18:22:23.199Z,12.60
2023-04-28T18:24:50.490Z,12.60
2023-04-28T18:27:17.457Z,12.60
2023-04-28T18:29:44.387Z,12.50
2023-04-28T18:32:13.748Z,12.60
2023-04-28T18:34:41.441Z,12.50
2023-04-28T18:37:11.162Z,12.50
2023-04-28T18:39:37.885Z,12.50
2023-04-28T18:42:04.646Z,12.50
2023-04-28T18:44:31.472Z,12.50
2023-04-28T18:46:58.601Z,12.40
2023-04-28T18:49:25.717Z,12.40
2023-04-28T18:51:52.693Z,12.40
2023-04-28T18:54:19.781Z,12.40
2023-04-28T18:56:47.974Z,12.40
2023-04-28T18:59:14.767Z,12.30
2023-04-28T19:01:41.565Z,12.30
2023-04-28T19:04:08.775Z,12.30
2023-04-28T19:06:36.282Z,12.30
2023-04-28T19:09:03.045Z,12.30
2023-04-28T19:11:30.497Z,12.30
2023-04-28T19:13:58.172Z,12.30
2023-04-28T19:16:25.159Z,12.30
2023-04-28T19:18:52.089Z,12.30
2023-04-28T19:21:18.787Z,12.30
2023-04-28T19:23:45.487Z,12.30
2023-04-28T19:26:13.282Z,12.30
2023-04-28T19:28:39.988Z,12.20
2023-04-28T19:31:07.226Z,12.20
2023-04-28T19:33:33.955Z,12.20
2023-04-28T19:36:00.631Z,12.70
2023-04-28T19:38:28.330Z,12.20
2023-04-28T19:41:01.246Z,12.20
2023-04-28T19:43:27.970Z,12.10
2023-04-28T19:45:54.892Z,12.10
2023-04-28T19:48:21.828Z,12.10
2023-04-28T19:50:48.667Z,12.00
2023-04-28T19:53:15.322Z,12.00
2023-04-28T19:55:41.979Z,11.90
2023-04-28T19:58:10.074Z,11.90
2023-04-28T20:00:36.902Z,11.90
2023-04-28T20:03:03.961Z,11.90
2023-04-28T20:05:31.279Z,11.80
2023-04-28T20:07:57.962Z,11.80
2023-04-28T20:10:24.739Z,11.80
2023-04-28T20:12:51.606Z,11.80
2023-04-28T20:15:18.662Z,11.70
2023-04-28T20:17:46.211Z,11.70
2023-04-28T20:20:13.757Z,11.70
2023-04-28T20:22:43.297Z,11.70
2023-04-28T20:25:10.847Z,11.70
2023-04-28T20:27:37.802Z,11.70
2023-04-28T20:30:05.133Z,11.60
2023-04-28T20:32:31.871Z,11.60
2023-04-28T20:34:58.773Z,11.60
2023-04-28T20:37:26.433Z,11.60
2023-04-28T20:39:53.592Z,11.60
2023-04-28T20:42:20.359Z,11.60
2023-04-28T20:44:47.163Z,11.60
2023-04-28T20:47:14.091Z,11.70
2023-04-28T20:49:41.825Z,11.70
2023-04-28T20:52:08.639Z,11.70
2023-04-28T20:54:36.407Z,11.80
2023-04-28T20:57:04.396Z,11.80
2023-04-28T20:59:32.733Z,11.80
2023-04-28T21:01:59.943Z,11.80
2023-04-28T21:04:27.882Z,11.80
2023-04-28T21:06:54.696Z,11.80
2023-04-28T21:09:23.675Z,11.80
2023-04-28T21:11:50.552Z,11.80
2023-04-28T21:14:17.208Z,11.80
2023-04-28T21:16:43.956Z,11.80
2023-04-28T21:19:10.815Z,11.70
2023-04-28T21:21:38.114Z,11.70
2023-04-28T21:24:06.013Z,11.70
2023-04-28T21:26:32.993Z,11.70
2023-04-28T21:28:59.926Z,11.80
2023-04-28T21:31:27.036Z,11.80
2023-04-28T21:33:53.769Z,11.70
2023-04-28T21:36:20.504Z,11.70
2023-04-28T21:38:47.168Z,11.70
2023-04-28T21:41:14.139Z,11.70
2023-04-28T21:43:40.838Z,11.60
2023-04-28T21:46:07.552Z,11.60
2023-04-28T21:48:34.249Z,11.50
2023-04-28T21:51:01.260Z,11.40
2023-04-28T21:53:28.686Z,11.30
2023-04-28T21:55:55.672Z,11.30
2023-04-28T21:58:22.366Z,11.40
2023-04-28T22:00:49.176Z,11.30
2023-04-28T22:03:16.359Z,11.40
2023-04-28T22:05:44.903Z,11.30
2023-04-28T22:08:12.342Z,11.30
2023-04-28T22:10:39.331Z,11.40
2023-04-28T22:13:06.409Z,11.40
2023-04-28T22:15:33.461Z,11.40
2023-04-28T22:18:00.285Z,11.50
2023-04-28T22:20:27.189Z,11.50
2023-04-28T22:22:54.183Z,11.50
2023-04-28T22:25:21.222Z,11.50
2023-04-28T22:27:48.004Z,11.50
2023-04-28T22:30:15.583Z,11.50
2023-04-28T22:32:46.802Z,11.50
2023-04-28T22:35:14.210Z,11.50
2023-04-28T22:37:40.908Z,11.40
2023-04-28T22:40:08.789Z,11.40
2023-04-28T22:42:37.002Z,11.40
2023-04-28T22:45:04.392Z,11.40
2023-04-28T22:47:31.177Z,11.40
2023-04-28T22:49:57.983Z,11.20
2023-04-28T22:52:25.114Z,11.30
2023-04-28T22:54:53.476Z,11.30
2023-04-28T22:57:20.347Z,11.30
2023-04-28T22:59:47.028Z,11.30
2023-04-28T23:02:13.715Z,11.40
2023-04-28T23:04:41.053Z,11.40
2023-04-28T23:07:07.950Z,11.40
2023-04-28T23:09:36.144Z,11.40
2023-04-28T23:12:06.065Z,11.40
2023-04-28T23:14:33.051Z,11.40
2023-04-28T23:16:59.896Z,11.40
2023-04-28T23:19:26.679Z,11.40
2023-04-28T23:21:54.388Z,11.40
2023-04-28T23:24:21.146Z,11.40
2023-04-28T23:26:47.854Z,11.40
2023-04-28T23:29:14.551Z,11.50
2023-04-28T23:31:41.303Z,11.50
2023-04-28T23:34:08.614Z,11.50
2023-04-28T23:36:36.355Z,11.60
2023-04-28T23:39:03.082Z,11.60
2023-04-28T23:41:29.820Z,11.60
2023-04-28T23:43:56.768Z,11.60
2023-04-28T23:46:23.833Z,11.50
2023-04-28T23:48:50.813Z,11.50
2023-04-28T23:51:17.486Z,11.50
2023-04-28T23:53:44.323Z,11.50
2023-04-28T23:56:11.228Z,11.50
2023-04-28T23:58:38.745Z,11.50
